sensor_id;sensor_type;location;lat;lon;timestamp;pressure;altitude;pressure_sealevel;temperature;humidity
12793;BME280;6460;42.684;23.260;2022-09-13T03:17:29;94365.13;;;14.50;91.84
12793;BME280;6460;42.684;23.260;2022-09-13T06:23:01;94424.03;;;16.21;78.75
12793;BME280;6460;42.684;23.260;2022-09-13T06:25:29;94439.25;;;15.94;78.56
12793;BME280;6460;42.684;23.260;2022-09-13T06:27:57;94424.47;;;16.13;78.79
12793;BME280;6460;42.684;23.260;2022-09-13T06:30:24;94424.00;;;16.32;77.68
12793;BME280;6460;42.684;23.260;2022-09-13T06:32:51;94430.53;;;16.38;76.67
12793;BME280;6460;42.684;23.260;2022-09-13T06:35:18;94431.28;;;16.49;75.86
12793;BME280;6460;42.684;23.260;2022-09-13T06:37:45;94431.31;;;16.38;75.63
12793;BME280;6460;42.684;23.260;2022-09-13T06:40:20;94434.81;;;16.42;75.74
12793;BME280;6460;42.684;23.260;2022-09-13T06:42:59;94434.78;;;16.46;76.28
12793;BME280;6460;42.684;23.260;2022-09-13T06:45:26;94443.19;;;16.69;75.64
12793;BME280;6460;42.684;23.260;2022-09-13T06:47:54;94440.03;;;16.81;75.86
12793;BME280;6460;42.684;23.260;2022-09-13T06:50:21;94445.47;;;16.81;75.13
12793;BME280;6460;42.684;23.260;2022-09-13T06:52:48;94445.78;;;16.90;74.14
12793;BME280;6460;42.684;23.260;2022-09-13T06:55:16;94444.22;;;16.89;74.20
12793;BME280;6460;42.684;23.260;2022-09-13T06:57:44;94453.84;;;17.01;72.80
12793;BME280;6460;42.684;23.260;2022-09-13T07:00:12;94450.03;;;16.91;72.55
12793;BME280;6460;42.684;23.260;2022-09-13T07:02:39;94446.84;;;17.04;71.61
12793;BME280;6460;42.684;23.260;2022-09-13T07:05:12;94456.22;;;16.92;72.14
12793;BME280;6460;42.684;23.260;2022-09-13T07:11:39;94457.25;;;17.12;72.78
12793;BME280;6460;42.684;23.260;2022-09-13T07:14:28;94460.75;;;17.13;71.31
12793;BME280;6460;42.684;23.260;2022-09-13T07:16:55;94467.72;;;17.14;71.63
12793;BME280;6460;42.684;23.260;2022-09-13T07:19:23;94460.47;;;17.00;71.89
12793;BME280;6460;42.684;23.260;2022-09-13T07:21:52;94473.00;;;17.35;70.19
12793;BME280;6460;42.684;23.260;2022-09-13T07:24:20;94460.81;;;17.54;70.28
12793;BME280;6460;42.684;23.260;2022-09-13T07:26:50;94471.25;;;17.59;68.06
12793;BME280;6460;42.684;23.260;2022-09-13T07:29:20;94465.78;;;17.62;66.79
12793;BME280;6460;42.684;23.260;2022-09-13T07:31:50;94464.88;;;17.79;68.10
12793;BME280;6460;42.684;23.260;2022-09-13T07:34:19;94471.91;;;17.73;68.04
12793;BME280;6460;42.684;23.260;2022-09-13T07:36:47;94466.31;;;17.87;66.31
12793;BME280;6460;42.684;23.260;2022-09-13T07:39:15;94468.06;;;17.71;66.58
12793;BME280;6460;42.684;23.260;2022-09-13T07:41:43;94463.38;;;17.71;66.61
12793;BME280;6460;42.684;23.260;2022-09-13T07:44:13;94458.16;;;17.87;67.29
12793;BME280;6460;42.684;23.260;2022-09-13T07:46:40;94466.53;;;18.04;66.69
12793;BME280;6460;42.684;23.260;2022-09-13T07:49:09;94456.91;;;18.29;65.74
12793;BME280;6460;42.684;23.260;2022-09-13T07:51:48;94467.69;;;18.40;65.36
12793;BME280;6460;42.684;23.260;2022-09-13T07:54:17;94470.31;;;18.47;63.35
12793;BME280;6460;42.684;23.260;2022-09-13T08:00:04;94468.03;;;18.76;60.59
12793;BME280;6460;42.684;23.260;2022-09-13T08:02:31;94476.34;;;18.65;61.98
12793;BME280;6460;42.684;23.260;2022-09-13T08:05:01;94472.19;;;18.84;59.46
12793;BME280;6460;42.684;23.260;2022-09-13T08:07:28;94460.47;;;18.60;61.52
12793;BME280;6460;42.684;23.260;2022-09-13T08:09:57;94472.78;;;18.68;59.41
12793;BME280;6460;42.684;23.260;2022-09-13T08:12:27;94458.38;;;18.71;59.73
12793;BME280;6460;42.684;23.260;2022-09-13T10:15:35;94388.59;;;21.69;44.44
12793;BME280;6460;42.684;23.260;2022-09-13T15:42:11;94348.94;;;22.19;37.88
12793;BME280;6460;42.684;23.260;2022-09-13T15:44:38;94364.88;;;21.95;38.08
12793;BME280;6460;42.684;23.260;2022-09-13T15:47:09;94358.66;;;21.78;38.14
12793;BME280;6460;42.684;23.260;2022-09-13T15:49:38;94360.25;;;21.47;38.92
12793;BME280;6460;42.684;23.260;2022-09-13T15:52:06;94368.59;;;21.72;39.11
12793;BME280;6460;42.684;23.260;2022-09-13T15:54:35;94366.91;;;21.62;39.54
12793;BME280;6460;42.684;23.260;2022-09-13T15:57:05;94376.69;;;21.76;40.05
12793;BME280;6460;42.684;23.260;2022-09-13T15:59:34;94373.41;;;21.52;40.40
12793;BME280;6460;42.684;23.260;2022-09-13T16:02:13;94379.03;;;21.45;40.93
12793;BME280;6460;42.684;23.260;2022-09-13T16:04:41;94378.22;;;21.32;41.12
12793;BME280;6460;42.684;23.260;2022-09-13T16:07:08;94372.16;;;21.40;40.96
12793;BME280;6460;42.684;23.260;2022-09-13T16:09:35;94377.38;;;21.19;41.98
12793;BME280;6460;42.684;23.260;2022-09-13T16:12:03;94379.47;;;20.95;42.75
12793;BME280;6460;42.684;23.260;2022-09-13T16:14:30;94395.75;;;20.82;43.77
12793;BME280;6460;42.684;23.260;2022-09-13T16:16:59;94388.56;;;20.36;45.50
12793;BME280;6460;42.684;23.260;2022-09-13T16:19:29;94392.84;;;20.18;45.95
12793;BME280;6460;42.684;23.260;2022-09-13T16:21:56;94383.28;;;20.29;46.54
12793;BME280;6460;42.684;23.260;2022-09-13T16:24:23;94387.84;;;19.73;48.20
12793;BME280;6460;42.684;23.260;2022-09-13T16:26:50;94385.41;;;19.59;49.00
12793;BME280;6460;42.684;23.260;2022-09-13T16:29:17;94394.84;;;19.28;49.93
12793;BME280;6460;42.684;23.260;2022-09-13T16:31:44;94395.22;;;19.30;49.53
12793;BME280;6460;42.684;23.260;2022-09-13T16:34:13;94385.28;;;19.20;50.17
12793;BME280;6460;42.684;23.260;2022-09-13T16:36:40;94396.63;;;19.38;49.35
12793;BME280;6460;42.684;23.260;2022-09-13T16:39:07;94392.19;;;19.01;50.61
12793;BME280;6460;42.684;23.260;2022-09-13T16:41:34;94401.25;;;18.94;50.54
12793;BME280;6460;42.684;23.260;2022-09-13T16:44:01;94395.50;;;19.12;49.84
12793;BME280;6460;42.684;23.260;2022-09-13T16:46:29;94393.53;;;18.63;51.47
12793;BME280;6460;42.684;23.260;2022-09-13T16:48:56;94403.13;;;18.97;50.72
12793;BME280;6460;42.684;23.260;2022-09-13T16:51:25;94396.44;;;18.48;51.52
12793;BME280;6460;42.684;23.260;2022-09-13T16:53:52;94406.69;;;18.37;51.74
12793;BME280;6460;42.684;23.260;2022-09-13T16:56:22;94410.53;;;18.40;52.24
12793;BME280;6460;42.684;23.260;2022-09-13T16:58:50;94422.50;;;18.16;53.36
12793;BME280;6460;42.684;23.260;2022-09-13T17:01:19;94421.75;;;18.15;53.65
12793;BME280;6460;42.684;23.260;2022-09-13T17:03:47;94418.88;;;18.26;53.35
12793;BME280;6460;42.684;23.260;2022-09-13T17:06:15;94422.88;;;18.48;52.43
12793;BME280;6460;42.684;23.260;2022-09-13T17:08:47;94428.81;;;18.09;53.88
12793;BME280;6460;42.684;23.260;2022-09-13T17:11:18;94432.13;;;17.90;54.71
12793;BME280;6460;42.684;23.260;2022-09-13T17:13:45;94439.50;;;17.89;55.21
12793;BME280;6460;42.684;23.260;2022-09-13T17:16:20;94442.19;;;17.93;55.36
12793;BME280;6460;42.684;23.260;2022-09-13T17:18:48;94442.66;;;17.84;55.77
12793;BME280;6460;42.684;23.260;2022-09-13T17:21:15;94438.50;;;17.76;55.89
12793;BME280;6460;42.684;23.260;2022-09-13T17:23:43;94450.75;;;17.91;55.81
12793;BME280;6460;42.684;23.260;2022-09-13T17:26:11;94442.31;;;17.82;55.87
12793;BME280;6460;42.684;23.260;2022-09-13T17:28:38;94441.31;;;17.62;56.71
12793;BME280;6460;42.684;23.260;2022-09-13T17:31:05;94445.19;;;17.65;57.06
12793;BME280;6460;42.684;23.260;2022-09-13T17:33:33;94454.78;;;17.76;56.77
12793;BME280;6460;42.684;23.260;2022-09-13T17:36:02;94452.50;;;17.71;57.27
12793;BME280;6460;42.684;23.260;2022-09-13T17:38:29;94445.59;;;17.63;57.68
12793;BME280;6460;42.684;23.260;2022-09-13T17:41:00;94454.06;;;17.72;57.59
12793;BME280;6460;42.684;23.260;2022-09-13T17:43:29;94457.94;;;17.71;57.79
12793;BME280;6460;42.684;23.260;2022-09-13T17:45:56;94458.09;;;17.57;58.14
12793;BME280;6460;42.684;23.260;2022-09-13T17:48:28;94459.84;;;17.74;57.33
12793;BME280;6460;42.684;23.260;2022-09-13T17:50:59;94466.47;;;17.73;57.67
12793;BME280;6460;42.684;23.260;2022-09-13T17:53:27;94462.72;;;17.60;58.26
12793;BME280;6460;42.684;23.260;2022-09-13T17:55:54;94460.59;;;17.78;57.71
12793;BME280;6460;42.684;23.260;2022-09-13T17:58:23;94460.22;;;17.76;58.11
12793;BME280;6460;42.684;23.260;2022-09-13T18:00:59;94463.81;;;17.66;58.09
12793;BME280;6460;42.684;23.260;2022-09-13T18:03:26;94466.41;;;17.80;57.78
12793;BME280;6460;42.684;23.260;2022-09-13T18:05:54;94473.53;;;17.67;58.12
12793;BME280;6460;42.684;23.260;2022-09-13T18:08:22;94466.53;;;17.66;58.29
12793;BME280;6460;42.684;23.260;2022-09-13T18:10:49;94473.06;;;17.72;57.75
12793;BME280;6460;42.684;23.260;2022-09-13T18:13:16;94468.22;;;17.46;58.64
12793;BME280;6460;42.684;23.260;2022-09-13T18:15:44;94465.69;;;17.73;57.78
12793;BME280;6460;42.684;23.260;2022-09-13T18:18:12;94465.16;;;17.44;58.54
12793;BME280;6460;42.684;23.260;2022-09-13T18:20:44;94471.41;;;17.41;58.86
12793;BME280;6460;42.684;23.260;2022-09-13T18:23:11;94468.94;;;17.57;58.59
12793;BME280;6460;42.684;23.260;2022-09-13T18:25:38;94468.63;;;17.48;58.79
12793;BME280;6460;42.684;23.260;2022-09-13T18:28:05;94472.09;;;17.48;58.69
12793;BME280;6460;42.684;23.260;2022-09-13T18:30:32;94472.22;;;17.34;59.68
12793;BME280;6460;42.684;23.260;2022-09-13T18:32:59;94480.41;;;17.31;59.88
12793;BME280;6460;42.684;23.260;2022-09-13T18:35:28;94478.44;;;17.35;59.69
12793;BME280;6460;42.684;23.260;2022-09-13T18:37:54;94475.75;;;17.31;59.99
12793;BME280;6460;42.684;23.260;2022-09-13T18:40:21;94473.91;;;17.18;61.00
12793;BME280;6460;42.684;23.260;2022-09-13T18:42:48;94483.47;;;17.33;60.11
12793;BME280;6460;42.684;23.260;2022-09-13T18:45:16;94476.06;;;17.37;60.39
12793;BME280;6460;42.684;23.260;2022-09-13T18:47:43;94485.16;;;17.20;60.88
12793;BME280;6460;42.684;23.260;2022-09-13T18:50:09;94486.25;;;17.26;60.89
12793;BME280;6460;42.684;23.260;2022-09-13T18:52:39;94493.22;;;17.27;60.98
12793;BME280;6460;42.684;23.260;2022-09-13T18:55:06;94494.53;;;17.63;59.34
12793;BME280;6460;42.684;23.260;2022-09-13T18:57:33;94497.06;;;17.29;60.34
12793;BME280;6460;42.684;23.260;2022-09-13T19:00:00;94496.97;;;17.43;59.86
12793;BME280;6460;42.684;23.260;2022-09-13T19:02:28;94508.34;;;17.28;60.20
12793;BME280;6460;42.684;23.260;2022-09-13T19:04:55;94495.56;;;17.76;58.50
12793;BME280;6460;42.684;23.260;2022-09-13T19:07:22;94506.78;;;17.30;59.79
12793;BME280;6460;42.684;23.260;2022-09-13T19:09:51;94503.25;;;17.37;59.88
12793;BME280;6460;42.684;23.260;2022-09-13T19:12:18;94501.31;;;17.37;59.72
12793;BME280;6460;42.684;23.260;2022-09-13T19:14:45;94503.38;;;17.23;60.24
12793;BME280;6460;42.684;23.260;2022-09-13T19:17:13;94499.84;;;17.26;59.89
12793;BME280;6460;42.684;23.260;2022-09-13T19:19:39;94503.25;;;17.33;59.65
12793;BME280;6460;42.684;23.260;2022-09-13T19:22:06;94498.75;;;17.16;60.21
12793;BME280;6460;42.684;23.260;2022-09-13T19:24:33;94501.03;;;17.21;60.35
12793;BME280;6460;42.684;23.260;2022-09-13T19:27:04;94499.09;;;17.22;60.53
12793;BME280;6460;42.684;23.260;2022-09-13T19:29:30;94493.41;;;17.02;60.70
12793;BME280;6460;42.684;23.260;2022-09-13T19:31:57;94496.75;;;17.24;60.45
12793;BME280;6460;42.684;23.260;2022-09-13T19:34:24;94495.94;;;17.27;59.79
12793;BME280;6460;42.684;23.260;2022-09-13T19:36:51;94491.13;;;16.93;61.12
12793;BME280;6460;42.684;23.260;2022-09-13T19:39:21;94503.19;;;16.89;61.26
12793;BME280;6460;42.684;23.260;2022-09-13T19:41:48;94501.25;;;16.89;61.04
12793;BME280;6460;42.684;23.260;2022-09-13T19:44:17;94502.03;;;16.86;61.44
12793;BME280;6460;42.684;23.260;2022-09-13T19:46:44;94493.53;;;16.84;61.06
12793;BME280;6460;42.684;23.260;2022-09-13T19:49:13;94493.88;;;16.90;60.97
12793;BME280;6460;42.684;23.260;2022-09-13T19:51:41;94500.00;;;17.01;60.81
12793;BME280;6460;42.684;23.260;2022-09-13T19:54:11;94502.72;;;16.98;60.61
12793;BME280;6460;42.684;23.260;2022-09-13T19:56:40;94504.97;;;17.13;60.10
12793;BME280;6460;42.684;23.260;2022-09-13T19:59:08;94504.25;;;17.06;59.98
12793;BME280;6460;42.684;23.260;2022-09-13T20:01:39;94506.97;;;17.06;59.77
12793;BME280;6460;42.684;23.260;2022-09-13T20:04:08;94498.00;;;17.12;59.91
12793;BME280;6460;42.684;23.260;2022-09-13T20:06:37;94498.44;;;17.04;60.54
12793;BME280;6460;42.684;23.260;2022-09-13T20:09:06;94493.28;;;17.20;59.97
12793;BME280;6460;42.684;23.260;2022-09-13T20:11:34;94496.16;;;16.95;60.87
12793;BME280;6460;42.684;23.260;2022-09-13T20:14:01;94500.00;;;17.01;60.71
12793;BME280;6460;42.684;23.260;2022-09-13T20:16:29;94495.22;;;17.23;60.55
12793;BME280;6460;42.684;23.260;2022-09-13T20:18:59;94497.28;;;16.98;60.79
12793;BME280;6460;42.684;23.260;2022-09-13T20:21:27;94495.00;;;16.92;60.92
12793;BME280;6460;42.684;23.260;2022-09-13T20:23:57;94495.00;;;16.92;61.61
12793;BME280;6460;42.684;23.260;2022-09-13T20:26:25;94503.59;;;16.84;61.05
12793;BME280;6460;42.684;23.260;2022-09-13T20:28:53;94497.41;;;16.83;61.05
12793;BME280;6460;42.684;23.260;2022-09-13T20:31:21;94492.75;;;16.80;61.03
12793;BME280;6460;42.684;23.260;2022-09-13T20:33:53;94496.56;;;16.93;60.95
12793;BME280;6460;42.684;23.260;2022-09-13T20:36:22;94496.59;;;16.86;61.22
12793;BME280;6460;42.684;23.260;2022-09-13T20:38:50;94504.81;;;16.69;61.92
12793;BME280;6460;42.684;23.260;2022-09-13T20:41:18;94496.75;;;16.58;61.99
12793;BME280;6460;42.684;23.260;2022-09-13T20:43:45;94498.63;;;16.72;61.22
12793;BME280;6460;42.684;23.260;2022-09-13T20:46:13;94499.34;;;16.83;61.32
12793;BME280;6460;42.684;23.260;2022-09-13T20:48:41;94500.91;;;16.80;60.96
12793;BME280;6460;42.684;23.260;2022-09-13T20:51:11;94504.34;;;16.88;60.73
12793;BME280;6460;42.684;23.260;2022-09-13T20:53:40;94496.25;;;16.81;61.18
12793;BME280;6460;42.684;23.260;2022-09-13T20:56:09;94501.31;;;16.75;61.17
12793;BME280;6460;42.684;23.260;2022-09-13T20:58:38;94510.56;;;16.85;60.70
12793;BME280;6460;42.684;23.260;2022-09-13T21:01:08;94516.03;;;16.81;61.12
12793;BME280;6460;42.684;23.260;2022-09-13T21:03:37;94520.97;;;17.01;59.99
12793;BME280;6460;42.684;23.260;2022-09-13T21:06:06;94513.50;;;17.12;59.84
12793;BME280;6460;42.684;23.260;2022-09-13T21:08:34;94519.81;;;16.94;59.94
12793;BME280;6460;42.684;23.260;2022-09-13T21:11:11;94514.50;;;16.77;60.30
12793;BME280;6460;42.684;23.260;2022-09-13T21:13:41;94506.34;;;16.80;59.94
12793;BME280;6460;42.684;23.260;2022-09-13T21:16:10;94512.16;;;16.75;60.27
12793;BME280;6460;42.684;23.260;2022-09-13T21:18:38;94517.94;;;16.84;60.99
12793;BME280;6460;42.684;23.260;2022-09-13T21:21:06;94524.66;;;16.62;60.99
12793;BME280;6460;42.684;23.260;2022-09-13T21:23:35;94513.75;;;16.69;61.34
12793;BME280;6460;42.684;23.260;2022-09-13T21:26:05;94513.69;;;16.83;60.22
12793;BME280;6460;42.684;23.260;2022-09-13T21:28:34;94505.22;;;16.74;60.87
12793;BME280;6460;42.684;23.260;2022-09-13T21:31:03;94513.69;;;16.80;60.84
12793;BME280;6460;42.684;23.260;2022-09-13T21:33:30;94514.44;;;16.91;60.04
12793;BME280;6460;42.684;23.260;2022-09-13T21:36:00;94500.44;;;16.92;60.31
12793;BME280;6460;42.684;23.260;2022-09-13T21:38:29;94514.31;;;17.09;60.33
12793;BME280;6460;42.684;23.260;2022-09-13T21:40:57;94509.09;;;16.66;62.40
12793;BME280;6460;42.684;23.260;2022-09-13T21:43:25;94510.97;;;16.87;62.65
12793;BME280;6460;42.684;23.260;2022-09-13T21:46:01;94507.78;;;16.99;64.43
12793;BME280;6460;42.684;23.260;2022-09-13T21:48:29;94514.34;;;17.02;65.23
12793;BME280;6460;42.684;23.260;2022-09-13T21:51:04;94502.34;;;16.99;66.48
12793;BME280;6460;42.684;23.260;2022-09-13T21:53:34;94507.59;;;16.65;67.99
12793;BME280;6460;42.684;23.260;2022-09-13T21:56:03;94495.06;;;16.82;67.46
12793;BME280;6460;42.684;23.260;2022-09-13T21:58:30;94498.59;;;16.75;67.76
12793;BME280;6460;42.684;23.260;2022-09-13T22:01:03;94499.81;;;16.67;68.25
12793;BME280;6460;42.684;23.260;2022-09-13T22:03:31;94501.41;;;16.61;68.33
12793;BME280;6460;42.684;23.260;2022-09-13T22:05:59;94496.75;;;16.51;69.19
12793;BME280;6460;42.684;23.260;2022-09-13T22:08:29;94495.28;;;16.29;70.38
12793;BME280;6460;42.684;23.260;2022-09-13T22:10:56;94494.91;;;16.30;70.65
12793;BME280;6460;42.684;23.260;2022-09-13T22:13:27;94503.97;;;15.53;72.95
12793;BME280;6460;42.684;23.260;2022-09-13T22:15:54;94505.47;;;15.86;72.45
12793;BME280;6460;42.684;23.260;2022-09-13T22:18:23;94500.09;;;15.82;72.77
12793;BME280;6460;42.684;23.260;2022-09-13T22:20:49;94510.91;;;15.40;74.98
12793;BME280;6460;42.684;23.260;2022-09-13T22:23:16;94508.19;;;15.22;76.08
12793;BME280;6460;42.684;23.260;2022-09-13T22:25:43;94511.66;;;15.23;76.65
12793;BME280;6460;42.684;23.260;2022-09-13T22:28:10;94502.00;;;15.15;76.36
12793;BME280;6460;42.684;23.260;2022-09-13T22:30:37;94500.84;;;15.26;76.29
12793;BME280;6460;42.684;23.260;2022-09-13T22:33:04;94502.41;;;15.24;76.05
12793;BME280;6460;42.684;23.260;2022-09-13T22:39:16;94498.91;;;15.09;77.28
12793;BME280;6460;42.684;23.260;2022-09-13T22:41:43;94506.75;;;14.24;80.88
12793;BME280;6460;42.684;23.260;2022-09-13T22:47:32;94506.22;;;14.88;78.98
12793;BME280;6460;42.684;23.260;2022-09-13T22:49:59;94509.97;;;14.44;80.48
12793;BME280;6460;42.684;23.260;2022-09-13T22:52:26;94513.78;;;14.36;82.24
12793;BME280;6460;42.684;23.260;2022-09-13T22:54:54;94508.44;;;14.47;81.61
12793;BME280;6460;42.684;23.260;2022-09-13T22:57:21;94515.41;;;14.55;81.47
12793;BME280;6460;42.684;23.260;2022-09-13T22:59:48;94512.28;;;14.42;81.77
12793;BME280;6460;42.684;23.260;2022-09-13T23:02:15;94514.22;;;14.45;81.45
12793;BME280;6460;42.684;23.260;2022-09-13T23:04:41;94510.75;;;14.55;81.16
12793;BME280;6460;42.684;23.260;2022-09-13T23:07:08;94502.66;;;14.59;80.97
12793;BME280;6460;42.684;23.260;2022-09-13T23:09:35;94510.84;;;14.76;79.64
12793;BME280;6460;42.684;23.260;2022-09-13T23:12:04;94494.56;;;14.66;80.33
12793;BME280;6460;42.684;23.260;2022-09-13T23:14:31;94500.72;;;14.45;81.40
12793;BME280;6460;42.684;23.260;2022-09-13T23:16:58;94506.91;;;14.53;81.34
12793;BME280;6460;42.684;23.260;2022-09-13T23:19:25;94503.00;;;14.43;81.70
12793;BME280;6460;42.684;23.260;2022-09-13T23:21:52;94502.25;;;14.46;81.04
12793;BME280;6460;42.684;23.260;2022-09-13T23:24:20;94498.44;;;14.65;80.63
12793;BME280;6460;42.684;23.260;2022-09-13T23:26:48;94504.19;;;14.49;81.60
12793;BME280;6460;42.684;23.260;2022-09-13T23:29:18;94506.13;;;14.45;82.12
12793;BME280;6460;42.684;23.260;2022-09-13T23:31:46;94512.28;;;14.49;81.51
12793;BME280;6460;42.684;23.260;2022-09-13T23:34:13;94516.16;;;14.55;81.23
12793;BME280;6460;42.684;23.260;2022-09-13T23:36:41;94511.97;;;14.58;81.04
12793;BME280;6460;42.684;23.260;2022-09-13T23:39:11;94509.09;;;14.22;83.26
12793;BME280;6460;42.684;23.260;2022-09-13T23:41:41;94508.00;;;14.34;81.50
12793;BME280;6460;42.684;23.260;2022-09-13T23:44:07;94522.34;;;14.45;81.44
12793;BME280;6460;42.684;23.260;2022-09-13T23:46:36;94518.44;;;14.43;81.73
12793;BME280;6460;42.684;23.260;2022-09-13T23:49:03;94503.75;;;14.40;82.05
12793;BME280;6460;42.684;23.260;2022-09-13T23:51:30;94513.03;;;14.36;82.25
12793;BME280;6460;42.684;23.260;2022-09-13T23:53:57;94509.09;;;14.29;82.60
12793;BME280;6460;42.684;23.260;2022-09-13T23:56:26;94518.84;;;14.41;82.53
12793;BME280;6460;42.684;23.260;2022-09-13T23:58:54;94514.22;;;14.45;81.79
